Mondariz, Spain
Current Conditions -  °F | °C
As of 9:00 AM on Thursday 27 Nov 2014 (Local Time) from LEVX Reporting Station
Broken Clouds Broken Clouds  
Wind Chill: 41°   Ceiling: 5400
Heat Index: 45°   Visibility: 6mi
Dew Point: 45°   Wind: 7mph
Humidity: 100%   Direction: 230°SW
Pressure: 29.47"   Gusts: NA
Location:  42.23°N, 8.46°W
Report Text: LEVX 270800Z 23006KT 9999 BKN054 07/07 Q0998 NOSIG
Loading
Personal Weather Stations






























Interactive Weather Map New forecast layout! Learn more

10-Day Weather Forecast

Advertisements
Track Severe Weather on mobile